GRO weather

Girona Airport
Girona, Girona, Spain

Public forecast

Using degrees Celsius for public forecast. Weather courtesy of forecast.io.

Current aviation weather report (METAR) for Girona Airport

Retrieved 2019/12/12 08:30 UTC (0 seconds ago):

LEGE 120830Z VRB01KT 9000 BCFG FEW020 02/02 Q1014

Aviation forecast (TAF) for Girona Airport

Retrieved 2019/12/12 06:27 UTC (2 hours ago):

TAF LEGE 120500Z 1206/1306 VRB04KT 9999 SCT060 TX14/1213Z TN04/1206Z TEMPO 1212/1220 20010KT